Rotterdam — PDGS — position and weather

sailwx.info

Track history (hours):
 
Tides and Currents Weather Stations Pressure Air Temp Water Temp Dewpoint Dewpoint Depression Visibility Wind Speed Wind Dir Waves Ship Positions

Rotterdam

Operator: Holland America Line

Last reported at 2017-Jul-22 00:00 UTC. Time now 2017-Jul-22 18:33 UTC.
Position N 65°06' W 024°48'.

Length 228 m; beam 29 m.

Type: Ship. MMSI: 24616700.

Wind from 100 at 15 knots

Barometer 1004.4 mb
Air temperature 11.2 ° C
Visibility: greater than 5.4 NM
Dewpoint 11.2 ° C
Water temperature 12.0 ° C

Date/timePositionNaut miles runAvg speedWind from/ knotsBaromVisibWave heightAir tempDewpointWater temp
2017-Jul-22 00:00N 65°06' W 024°48'162 6.0 100 / 151004.4 5.4 11.211.212.0
2017-Jul-20 21:00N 66°12' W 018°48'271 8.2 270 / 151004.910.8 12.1 6.412.0
2017-Jul-19 12:00N 64°24' W 008°54'19518.3 130 / 251010.110.8 17.0 8.712.0
2017-Jul-19 01:21N 62°11' W 003°36'516.0
2017-Jul-19 01:01N 62°07' W 003°28'815.2
2017-Jul-19 00:30N 62°02' W 003°16'916.8
2017-Jul-18 23:59N 61°56' W 003°03'1817.2
2017-Jul-18 22:57N 61°44' W 002°35'817.3
2017-Jul-18 22:28N 61°38' W 002°22'817.6
2017-Jul-18 22:00N 61°32' W 002°10'918.0
2017-Jul-18 21:30N 61°26' W 001°56'918.0
2017-Jul-18 21:00N 61°20' W 001°42'2726.3
2017-Jul-18 20:00N 61°00' W 001°06'411.7 100 / 111017.910.8 13.0 9.314.0
2017-Jul-18 19:41N 61°04' W 001°08'417.5
2017-Jul-18 19:29N 61°01' W 001°02'3816.2
2017-Jul-18 17:07N 60°24' W 000°41'618.0
2017-Jul-18 16:47N 60°19' W 000°46'1018.3
2017-Jul-18 16:15N 60°10' W 000°56'159 7.2
2017-Jul-17 18:05N 60°45' E 004°19'116.0
2017-Jul-17 18:00N 60°45' E 004°21'815.8
2017-Jul-17 17:30N 60°45' E 004°38'611.4
2017-Jul-17 17:00N 60°42' E 004°47'815.7
2017-Jul-17 16:30N 60°35' E 004°55'816.2
2017-Jul-17 16:00N 60°27' E 005°01'612.8
2017-Jul-17 15:30N 60°23' E 005°11'4 8.2
2017-Jul-17 15:00N 60°24' E 005°19'0 0.1
2017-Jul-17 14:30N 60°24' E 005°19'0 0.0
2017-Jul-17 14:00N 60°24' E 005°19'0 0.0
2017-Jul-17 13:24N 60°24' E 005°19'0 0.0
2017-Jul-17 13:00N 60°24' E 005°19'0 0.0
2017-Jul-17 12:30N 60°24' E 005°19'0 0.0
2017-Jul-17 12:00N 60°24' E 005°19'0 0.0
2017-Jul-17 11:30N 60°24' E 005°19'0 0.0
2017-Jul-17 11:00N 60°24' E 005°19'0 0.0
2017-Jul-17 10:30N 60°24' E 005°19'0 0.0
2017-Jul-17 10:00N 60°24' E 005°19'0 0.0
2017-Jul-17 09:30N 60°24' E 005°19'0 0.0
2017-Jul-17 09:00N 60°24' E 005°19'0 0.0
2017-Jul-17 08:30N 60°24' E 005°19'0 0.0
2017-Jul-17 08:00N 60°24' E 005°19'0 0.0
2017-Jul-17 07:30N 60°24' E 005°19'0 0.0
2017-Jul-17 07:00N 60°24' E 005°19'0 0.0
2017-Jul-17 06:30N 60°24' E 005°19'0 0.0
2017-Jul-17 06:00N 60°24' E 005°19'0 0.0
2017-Jul-17 05:29N 60°24' E 005°19'3 6.4
2017-Jul-17 05:00N 60°24' E 005°12'5 9.7
2017-Jul-17 04:30N 60°25' E 005°03'816.1
2017-Jul-17 04:00N 60°32' E 004°56'918.2
2017-Jul-17 03:30N 60°41' E 004°50'612.3
2017-Jul-17 03:00N 60°45' E 004°40'510.2
2017-Jul-17 02:30N 60°44' E 004°29'611.4
2017-Jul-17 02:00N 60°38' E 004°25'12816.0
2017-Jul-16 18:00N 58°30' E 004°24'9415.6 270 / 231014.910.8 13.7 8.715.0
2017-Jul-16 12:00N 57°00' E 005°12'23416.0 290 / 211015.010.8 14.7 9.716.0
2017-Jul-15 21:25N 53°08' E 004°29'1119.2
2017-Jul-15 20:51N 52°58' E 004°20'719.1
2017-Jul-15 20:30N 52°52' E 004°15'1018.9
2017-Jul-15 20:00N 52°44' E 004°07'918.8
2017-Jul-15 19:30N 52°36' E 003°59'918.8
2017-Jul-15 19:00N 52°27' E 003°54'1018.7
2017-Jul-15 18:29N 52°18' E 003°52'918.0
2017-Jul-15 18:01N 52°09' E 003°54'714.1
2017-Jul-15 17:30N 52°02' E 003°55'714.0
2017-Jul-15 17:01N 51°59' E 004°05'611.8
2017-Jul-15 16:30N 51°56' E 004°13'5 9.0
2017-Jul-15 16:01N 51°54' E 004°20'3 6.8
2017-Jul-15 15:31N 51°54' E 004°25'2 4.5
2017-Jul-15 15:00N 51°54' E 004°29'0 0.0
2017-Jul-15 14:00N 51°54' E 004°29'0 0.0
2017-Jul-15 13:30N 51°54' E 004°29'0 0.0
2017-Jul-15 13:00N 51°54' E 004°29'0 0.0
2017-Jul-15 12:30N 51°54' E 004°29'0 0.0
2017-Jul-15 12:00N 51°54' E 004°29'0 0.1
2017-Jul-15 11:30N 51°54' E 004°29'0 0.0
2017-Jul-15 11:00N 51°54' E 004°29'0 0.0
2017-Jul-15 10:30N 51°54' E 004°29'0 0.0
2017-Jul-15 10:00N 51°54' E 004°29'0 0.0
2017-Jul-15 09:30N 51°54' E 004°29'0 0.0
2017-Jul-15 09:00N 51°54' E 004°29'0 0.0
2017-Jul-15 08:30N 51°54' E 004°29'0 0.0
2017-Jul-15 08:00N 51°54' E 004°29'0 0.0
2017-Jul-15 07:30N 51°54' E 004°29'0 0.0
2017-Jul-15 07:00N 51°54' E 004°29'0 0.0
2017-Jul-15 06:30N 51°54' E 004°29'0 0.0
2017-Jul-15 06:00N 51°54' E 004°29'0 0.0
2017-Jul-15 05:30N 51°54' E 004°29'0 0.0
2017-Jul-15 05:00N 51°54' E 004°29'0 0.6
2017-Jul-15 04:31N 51°54' E 004°29'1 2.9
2017-Jul-15 04:00N 51°54' E 004°26'4 8.0
2017-Jul-15 03:31N 51°54' E 004°20'611.5
2017-Jul-15 03:00N 51°56' E 004°12'714.0
2017-Jul-15 02:30N 51°60' E 004°02'714.8
2017-Jul-15 02:01N 52°02' E 003°50'713.6
2017-Jul-15 01:30N 52°08' E 003°46'816.8
2017-Jul-15 01:00N 52°17' E 003°46'916.9
2017-Jul-15 00:30N 52°25' E 003°49'816.6
2017-Jul-15 00:00N 52°33' E 003°51'917.0
2017-Jul-14 23:30N 52°41' E 003°53'918.0
2017-Jul-14 23:00N 52°50' E 003°57'917.6
2017-Jul-14 22:30N 52°59' E 004°02'916.7
2017-Jul-14 21:59N 53°04' E 004°12'916.3
2017-Jul-14 21:28N 53°10' E 004°22'18516.1
2017-Jul-14 10:00N 56°12' E 005°24'13717.1 180 / 171010.710.8 14.011.5
2017-Jul-14 02:00N 58°24' E 004°18'579.9 160 / 221012.910.8 13.213.014.0
2017-Jul-14 01:55N 58°29' E 004°22'2216.9
2017-Jul-14 00:36N 58°50' E 004°09'3 4.3
2017-Jul-14 00:00N 58°48' E 004°06'11018.8 160 / 221009.910.8 14.013.215.0
2017-Jul-13 18:10N 60°37' E 004°21'317.2
2017-Jul-13 18:00N 60°40' E 004°24'816.2
2017-Jul-13 17:30N 60°45' E 004°37'612.1
2017-Jul-13 17:00N 60°42' E 004°48'917.4
2017-Jul-13 16:30N 60°34' E 004°55'918.2
2017-Jul-13 16:00N 60°26' E 005°03'510.7
2017-Jul-13 15:29N 60°24' E 005°13'3 6.1
2017-Jul-13 15:00N 60°24' E 005°19'0 0.0
2017-Jul-13 14:30N 60°24' E 005°19'0 0.0
2017-Jul-13 14:00N 60°24' E 005°19'0 0.0
2017-Jul-13 13:30N 60°24' E 005°19'0 0.0
2017-Jul-13 13:00N 60°24' E 005°19'0 0.0
2017-Jul-13 12:30N 60°24' E 005°19'0 0.0
2017-Jul-13 12:00N 60°24' E 005°19'0 0.0
2017-Jul-13 11:30N 60°24' E 005°19'0 0.0
2017-Jul-13 11:00N 60°24' E 005°19'0 0.0
2017-Jul-13 10:27N 60°24' E 005°19'0 0.0
2017-Jul-13 10:00N 60°24' E 005°19'0 0.0
2017-Jul-13 09:30N 60°24' E 005°19'0 0.0
2017-Jul-13 09:00N 60°24' E 005°19'0 0.0
2017-Jul-13 08:30N 60°24' E 005°19'0 0.0
2017-Jul-13 08:00N 60°24' E 005°19'0 0.0
2017-Jul-13 07:30N 60°24' E 005°19'0 0.0
2017-Jul-13 07:00N 60°24' E 005°19'0 0.0
2017-Jul-13 06:30N 60°24' E 005°19'0 0.0
2017-Jul-13 06:00N 60°24' E 005°19'0 0.9
2017-Jul-13 05:30N 60°24' E 005°18'4 7.7
2017-Jul-13 05:00N 60°23' E 005°10'612.2
2017-Jul-13 04:30N 60°27' E 005°01'917.2
2017-Jul-13 03:59N 60°35' E 004°54'817.4
2017-Jul-13 03:30N 60°43' E 004°48'816.2
2017-Jul-13 03:00N 60°46' E 004°32'816.0
2017-Jul-13 02:30N 60°53' E 004°23'3915.5
2017-Jul-13 00:00N 61°30' E 004°00'2419.7 300 / 201012.9 5.4 12.0 4.714.0
2017-Jul-12 22:46N 61°51' E 004°24'517.3
2017-Jul-12 22:30N 61°55' E 004°29'917.3
2017-Jul-12 21:59N 62°03' E 004°39'715.1
2017-Jul-12 21:30N 62°09' E 004°47'816.7
2017-Jul-12 21:00N 62°16' E 004°57'917.7
2017-Jul-12 20:30N 62°23' E 005°08'917.3
2017-Jul-12 20:00N 62°26' E 005°26'917.2
2017-Jul-12 19:30N 62°27' E 005°45'815.8
2017-Jul-12 19:01N 62°26' E 006°01'714.1
2017-Jul-12 18:31N 62°23' E 006°15'917.6
2017-Jul-12 18:00N 62°26' E 006°33'917.3
2017-Jul-12 17:30N 62°27' E 006°52'815.8
2017-Jul-12 17:00N 62°19' E 006°58'611.0
2017-Jul-12 16:30N 62°14' E 007°01'713.4
2017-Jul-12 16:00N 62°08' E 006°57'4 8.4
2017-Jul-12 15:30N 62°06' E 007°05'3 5.4
2017-Jul-12 15:00N 62°07' E 007°11'0 0.2
2017-Jul-12 14:00N 62°07' E 007°11'0 0.0
2017-Jul-12 13:30N 62°07' E 007°11'0 0.0
2017-Jul-12 12:59N 62°07' E 007°11'0 0.0
2017-Jul-12 12:30N 62°07' E 007°11'0 0.0
2017-Jul-12 12:00N 62°07' E 007°11'0 0.1
2017-Jul-12 11:30N 62°07' E 007°11'0 0.1
2017-Jul-12 11:00N 62°07' E 007°11'0 0.1
2017-Jul-12 10:30N 62°07' E 007°11'0 0.0
2017-Jul-12 10:00N 62°07' E 007°11'0 0.1
2017-Jul-12 09:30N 62°07' E 007°11'0 0.0
2017-Jul-12 09:00N 62°07' E 007°11'0 0.0
2017-Jul-12 08:30N 62°07' E 007°11'0 0.1
2017-Jul-12 07:58N 62°07' E 007°11'0 0.0
2017-Jul-12 07:30N 62°07' E 007°11'0 0.0
2017-Jul-12 07:00N 62°07' E 007°11'0 0.0
2017-Jul-12 06:30N 62°07' E 007°11'0 0.0
2017-Jul-12 06:00N 62°07' E 007°11'0 0.0
2017-Jul-12 05:30N 62°07' E 007°11'0 0.0
2017-Jul-12 04:59N 62°07' E 007°11'0 0.1
2017-Jul-12 04:30N 62°07' E 007°11'2 4.1
2017-Jul-12 04:00N 62°07' E 007°07'4 7.2
2017-Jul-12 03:30N 62°06' E 006°59'3 6.8
2017-Jul-12 03:00N 62°09' E 006°59'5 9.0
2017-Jul-12 02:30N 62°14' E 007°01'4 8.6
2017-Jul-12 02:00N 62°18' E 007°00'3224.1
2017-Jul-12 02:00N 62°18' E 006°54'4 7.6 360 / 101004.4 2.2 11.0 8.014.0
2017-Jul-12 01:30N 62°22' E 006°55'4 8.5
2017-Jul-12 01:00N 62°26' E 006°54'5 9.1
2017-Jul-12 00:30N 62°27' E 006°44'4 8.5
2017-Jul-12 00:00N 62°26' E 006°36'  
Track history (hours):
 
Tides and Currents Weather Stations Pressure Air Temp Water Temp Dewpoint Dewpoint Depression Visibility Wind Speed Wind Dir Waves Ship Positions

Rotterdam

Operator: Holland America Line

Last reported at 2017-Jul-22 00:00 UTC. Time now 2017-Jul-22 18:33 UTC.
Position N 65°06' W 024°48'.

Length 228 m; beam 29 m.

Type: Ship. MMSI: 24616700.

Wind from 100 at 15 knots

Barometer 1004.4 mb
Air temperature 11.2 ° C
Visibility: greater than 5.4 NM
Dewpoint 11.2 ° C
Water temperature 12.0 ° C

Date/timePositionNaut miles runAvg speedWind from/ knotsBaromVisibWave heightAir tempDewpointWater temp
2017-Jul-22 00:00N 65°06' W 024°48'162 6.0 100 / 151004.4 5.4 11.211.212.0
2017-Jul-20 21:00N 66°12' W 018°48'271 8.2 270 / 151004.910.8 12.1 6.412.0
2017-Jul-19 12:00N 64°24' W 008°54'19518.3 130 / 251010.110.8 17.0 8.712.0
2017-Jul-19 01:21N 62°11' W 003°36'516.0
2017-Jul-19 01:01N 62°07' W 003°28'815.2
2017-Jul-19 00:30N 62°02' W 003°16'916.8
2017-Jul-18 23:59N 61°56' W 003°03'1817.2
2017-Jul-18 22:57N 61°44' W 002°35'817.3
2017-Jul-18 22:28N 61°38' W 002°22'817.6
2017-Jul-18 22:00N 61°32' W 002°10'918.0
2017-Jul-18 21:30N 61°26' W 001°56'918.0
2017-Jul-18 21:00N 61°20' W 001°42'2726.3
2017-Jul-18 20:00N 61°00' W 001°06'411.7 100 / 111017.910.8 13.0 9.314.0
2017-Jul-18 19:41N 61°04' W 001°08'417.5
2017-Jul-18 19:29N 61°01' W 001°02'3816.2
2017-Jul-18 17:07N 60°24' W 000°41'618.0
2017-Jul-18 16:47N 60°19' W 000°46'1018.3
2017-Jul-18 16:15N 60°10' W 000°56'159 7.2
2017-Jul-17 18:05N 60°45' E 004°19'116.0
2017-Jul-17 18:00N 60°45' E 004°21'815.8
2017-Jul-17 17:30N 60°45' E 004°38'611.4
2017-Jul-17 17:00N 60°42' E 004°47'815.7
2017-Jul-17 16:30N 60°35' E 004°55'816.2
2017-Jul-17 16:00N 60°27' E 005°01'612.8
2017-Jul-17 15:30N 60°23' E 005°11'4 8.2
2017-Jul-17 15:00N 60°24' E 005°19'0 0.1
2017-Jul-17 14:30N 60°24' E 005°19'0 0.0
2017-Jul-17 14:00N 60°24' E 005°19'0 0.0
2017-Jul-17 13:24N 60°24' E 005°19'0 0.0
2017-Jul-17 13:00N 60°24' E 005°19'0 0.0
2017-Jul-17 12:30N 60°24' E 005°19'0 0.0
2017-Jul-17 12:00N 60°24' E 005°19'0 0.0
2017-Jul-17 11:30N 60°24' E 005°19'0 0.0
2017-Jul-17 11:00N 60°24' E 005°19'0 0.0
2017-Jul-17 10:30N 60°24' E 005°19'0 0.0
2017-Jul-17 10:00N 60°24' E 005°19'0 0.0
2017-Jul-17 09:30N 60°24' E 005°19'0 0.0
2017-Jul-17 09:00N 60°24' E 005°19'0 0.0
2017-Jul-17 08:30N 60°24' E 005°19'0 0.0
2017-Jul-17 08:00N 60°24' E 005°19'0 0.0
2017-Jul-17 07:30N 60°24' E 005°19'0 0.0
2017-Jul-17 07:00N 60°24' E 005°19'0 0.0
2017-Jul-17 06:30N 60°24' E 005°19'0 0.0
2017-Jul-17 06:00N 60°24' E 005°19'0 0.0
2017-Jul-17 05:29N 60°24' E 005°19'3 6.4
2017-Jul-17 05:00N 60°24' E 005°12'5 9.7
2017-Jul-17 04:30N 60°25' E 005°03'816.1
2017-Jul-17 04:00N 60°32' E 004°56'918.2
2017-Jul-17 03:30N 60°41' E 004°50'612.3
2017-Jul-17 03:00N 60°45' E 004°40'510.2
2017-Jul-17 02:30N 60°44' E 004°29'611.4
2017-Jul-17 02:00N 60°38' E 004°25'12816.0
2017-Jul-16 18:00N 58°30' E 004°24'9415.6 270 / 231014.910.8 13.7 8.715.0
2017-Jul-16 12:00N 57°00' E 005°12'23416.0 290 / 211015.010.8 14.7 9.716.0
2017-Jul-15 21:25N 53°08' E 004°29'1119.2
2017-Jul-15 20:51N 52°58' E 004°20'719.1
2017-Jul-15 20:30N 52°52' E 004°15'1018.9
2017-Jul-15 20:00N 52°44' E 004°07'918.8
2017-Jul-15 19:30N 52°36' E 003°59'918.8
2017-Jul-15 19:00N 52°27' E 003°54'1018.7
2017-Jul-15 18:29N 52°18' E 003°52'918.0
2017-Jul-15 18:01N 52°09' E 003°54'714.1
2017-Jul-15 17:30N 52°02' E 003°55'714.0
2017-Jul-15 17:01N 51°59' E 004°05'611.8
2017-Jul-15 16:30N 51°56' E 004°13'5 9.0
2017-Jul-15 16:01N 51°54' E 004°20'3 6.8
2017-Jul-15 15:31N 51°54' E 004°25'2 4.5
2017-Jul-15 15:00N 51°54' E 004°29'0 0.0
2017-Jul-15 14:00N 51°54' E 004°29'0 0.0
2017-Jul-15 13:30N 51°54' E 004°29'0 0.0
2017-Jul-15 13:00N 51°54' E 004°29'0 0.0
2017-Jul-15 12:30N 51°54' E 004°29'0 0.0
2017-Jul-15 12:00N 51°54' E 004°29'0 0.1
2017-Jul-15 11:30N 51°54' E 004°29'0 0.0
2017-Jul-15 11:00N 51°54' E 004°29'0 0.0
2017-Jul-15 10:30N 51°54' E 004°29'0 0.0
2017-Jul-15 10:00N 51°54' E 004°29'0 0.0
2017-Jul-15 09:30N 51°54' E 004°29'0 0.0
2017-Jul-15 09:00N 51°54' E 004°29'0 0.0
2017-Jul-15 08:30N 51°54' E 004°29'0 0.0
2017-Jul-15 08:00N 51°54' E 004°29'0 0.0
2017-Jul-15 07:30N 51°54' E 004°29'0 0.0
2017-Jul-15 07:00N 51°54' E 004°29'0 0.0
2017-Jul-15 06:30N 51°54' E 004°29'0 0.0
2017-Jul-15 06:00N 51°54' E 004°29'0 0.0
2017-Jul-15 05:30N 51°54' E 004°29'0 0.0
2017-Jul-15 05:00N 51°54' E 004°29'0 0.6
2017-Jul-15 04:31N 51°54' E 004°29'1 2.9
2017-Jul-15 04:00N 51°54' E 004°26'4 8.0
2017-Jul-15 03:31N 51°54' E 004°20'611.5
2017-Jul-15 03:00N 51°56' E 004°12'714.0
2017-Jul-15 02:30N 51°60' E 004°02'714.8
2017-Jul-15 02:01N 52°02' E 003°50'713.6
2017-Jul-15 01:30N 52°08' E 003°46'816.8
2017-Jul-15 01:00N 52°17' E 003°46'916.9
2017-Jul-15 00:30N 52°25' E 003°49'816.6
2017-Jul-15 00:00N 52°33' E 003°51'917.0
2017-Jul-14 23:30N 52°41' E 003°53'918.0
2017-Jul-14 23:00N 52°50' E 003°57'917.6
2017-Jul-14 22:30N 52°59' E 004°02'916.7
2017-Jul-14 21:59N 53°04' E 004°12'916.3
2017-Jul-14 21:28N 53°10' E 004°22'18516.1
2017-Jul-14 10:00N 56°12' E 005°24'13717.1 180 / 171010.710.8 14.011.5
2017-Jul-14 02:00N 58°24' E 004°18'579.9 160 / 221012.910.8 13.213.014.0
2017-Jul-14 01:55N 58°29' E 004°22'2216.9
2017-Jul-14 00:36N 58°50' E 004°09'3 4.3
2017-Jul-14 00:00N 58°48' E 004°06'11018.8 160 / 221009.910.8 14.013.215.0
2017-Jul-13 18:10N 60°37' E 004°21'317.2
2017-Jul-13 18:00N 60°40' E 004°24'816.2
2017-Jul-13 17:30N 60°45' E 004°37'612.1
2017-Jul-13 17:00N 60°42' E 004°48'917.4
2017-Jul-13 16:30N 60°34' E 004°55'918.2
2017-Jul-13 16:00N 60°26' E 005°03'510.7
2017-Jul-13 15:29N 60°24' E 005°13'3 6.1
2017-Jul-13 15:00N 60°24' E 005°19'0 0.0
2017-Jul-13 14:30N 60°24' E 005°19'0 0.0
2017-Jul-13 14:00N 60°24' E 005°19'0 0.0
2017-Jul-13 13:30N 60°24' E 005°19'0 0.0
2017-Jul-13 13:00N 60°24' E 005°19'0 0.0
2017-Jul-13 12:30N 60°24' E 005°19'0 0.0
2017-Jul-13 12:00N 60°24' E 005°19'0 0.0
2017-Jul-13 11:30N 60°24' E 005°19'0 0.0
2017-Jul-13 11:00N 60°24' E 005°19'0 0.0
2017-Jul-13 10:27N 60°24' E 005°19'0 0.0
2017-Jul-13 10:00N 60°24' E 005°19'0 0.0
2017-Jul-13 09:30N 60°24' E 005°19'0 0.0
2017-Jul-13 09:00N 60°24' E 005°19'0 0.0
2017-Jul-13 08:30N 60°24' E 005°19'0 0.0
2017-Jul-13 08:00N 60°24' E 005°19'0 0.0
2017-Jul-13 07:30N 60°24' E 005°19'0 0.0
2017-Jul-13 07:00N 60°24' E 005°19'0 0.0
2017-Jul-13 06:30N 60°24' E 005°19'0 0.0
2017-Jul-13 06:00N 60°24' E 005°19'0 0.9
2017-Jul-13 05:30N 60°24' E 005°18'4 7.7
2017-Jul-13 05:00N 60°23' E 005°10'612.2
2017-Jul-13 04:30N 60°27' E 005°01'917.2
2017-Jul-13 03:59N 60°35' E 004°54'817.4
2017-Jul-13 03:30N 60°43' E 004°48'816.2
2017-Jul-13 03:00N 60°46' E 004°32'816.0
2017-Jul-13 02:30N 60°53' E 004°23'3915.5
2017-Jul-13 00:00N 61°30' E 004°00'2419.7 300 / 201012.9 5.4 12.0 4.714.0
2017-Jul-12 22:46N 61°51' E 004°24'517.3
2017-Jul-12 22:30N 61°55' E 004°29'917.3
2017-Jul-12 21:59N 62°03' E 004°39'715.1
2017-Jul-12 21:30N 62°09' E 004°47'816.7
2017-Jul-12 21:00N 62°16' E 004°57'917.7
2017-Jul-12 20:30N 62°23' E 005°08'917.3
2017-Jul-12 20:00N 62°26' E 005°26'917.2
2017-Jul-12 19:30N 62°27' E 005°45'815.8
2017-Jul-12 19:01N 62°26' E 006°01'714.1
2017-Jul-12 18:31N 62°23' E 006°15'917.6
2017-Jul-12 18:00N 62°26' E 006°33'917.3
2017-Jul-12 17:30N 62°27' E 006°52'815.8
2017-Jul-12 17:00N 62°19' E 006°58'611.0
2017-Jul-12 16:30N 62°14' E 007°01'713.4
2017-Jul-12 16:00N 62°08' E 006°57'4 8.4
2017-Jul-12 15:30N 62°06' E 007°05'3 5.4
2017-Jul-12 15:00N 62°07' E 007°11'0 0.2
2017-Jul-12 14:00N 62°07' E 007°11'0 0.0
2017-Jul-12 13:30N 62°07' E 007°11'0 0.0
2017-Jul-12 12:59N 62°07' E 007°11'0 0.0
2017-Jul-12 12:30N 62°07' E 007°11'0 0.0
2017-Jul-12 12:00N 62°07' E 007°11'0 0.1
2017-Jul-12 11:30N 62°07' E 007°11'0 0.1
2017-Jul-12 11:00N 62°07' E 007°11'0 0.1
2017-Jul-12 10:30N 62°07' E 007°11'0 0.0
2017-Jul-12 10:00N 62°07' E 007°11'0 0.1
2017-Jul-12 09:30N 62°07' E 007°11'0 0.0
2017-Jul-12 09:00N 62°07' E 007°11'0 0.0
2017-Jul-12 08:30N 62°07' E 007°11'0 0.1
2017-Jul-12 07:58N 62°07' E 007°11'0 0.0
2017-Jul-12 07:30N 62°07' E 007°11'0 0.0
2017-Jul-12 07:00N 62°07' E 007°11'0 0.0
2017-Jul-12 06:30N 62°07' E 007°11'0 0.0
2017-Jul-12 06:00N 62°07' E 007°11'0 0.0
2017-Jul-12 05:30N 62°07' E 007°11'0 0.0
2017-Jul-12 04:59N 62°07' E 007°11'0 0.1
2017-Jul-12 04:30N 62°07' E 007°11'2 4.1
2017-Jul-12 04:00N 62°07' E 007°07'4 7.2
2017-Jul-12 03:30N 62°06' E 006°59'3 6.8
2017-Jul-12 03:00N 62°09' E 006°59'5 9.0
2017-Jul-12 02:30N 62°14' E 007°01'4 8.6
2017-Jul-12 02:00N 62°18' E 007°00'3224.1
2017-Jul-12 02:00N 62°18' E 006°54'4 7.6 360 / 101004.4 2.2 11.0 8.014.0
2017-Jul-12 01:30N 62°22' E 006°55'4 8.5
2017-Jul-12 01:00N 62°26' E 006°54'5 9.1
2017-Jul-12 00:30N 62°27' E 006°44'4 8.5
2017-Jul-12 00:00N 62°26' E 006°36'  

Dump ship's entire track history